createdAt,value
2019-03-19T00:00:28.367Z,43.60
2019-03-19T00:01:32.793Z,43.40
2019-03-19T00:03:40.881Z,43.20
2019-03-19T00:04:45.301Z,43.50
2019-03-19T00:05:49.700Z,43.50
2019-03-19T00:06:55.136Z,43.40
2019-03-19T00:09:04.577Z,43.20
2019-03-19T00:11:15.320Z,43.30
2019-03-19T00:12:19.749Z,43.30
2019-03-19T00:13:24.157Z,43.20
2019-03-19T00:14:28.560Z,43.20
2019-03-19T00:15:32.968Z,43.30
2019-03-19T00:17:40.939Z,43.40
2019-03-19T00:19:48.880Z,44.30
2019-03-19T00:20:53.367Z,43.30
2019-03-19T00:23:01.385Z,43.30
2019-03-19T00:25:09.805Z,43.30
2019-03-19T00:33:41.673Z,43.40
2019-03-19T00:37:56.869Z,43.40
2019-03-19T00:39:01.285Z,43.20
2019-03-19T00:42:16.144Z,43.10
2019-03-19T00:44:24.150Z,43.20
2019-03-19T00:45:28.869Z,43.30
2019-03-19T00:46:33.272Z,43.00
2019-03-19T00:47:37.675Z,43.10
2019-03-19T00:49:45.685Z,43.00
2019-03-19T00:56:09.371Z,43.20
2019-03-19T00:57:13.794Z,43.10
2019-03-19T00:58:18.295Z,43.10
2019-03-19T01:00:26.291Z,42.90
2019-03-19T01:04:43.934Z,43.10
2019-03-19T01:09:00.294Z,43.20
2019-03-19T01:11:15.712Z,43.30
2019-03-19T01:14:27.303Z,43.10
2019-03-19T01:19:46.383Z,43.30
2019-03-19T01:28:19.161Z,43.40
2019-03-19T01:29:23.607Z,43.30
2019-03-19T01:30:27.963Z,43.30
2019-03-19T01:31:33.618Z,43.30
2019-03-19T01:33:41.589Z,43.30
2019-03-19T01:35:49.656Z,43.30
2019-03-19T01:36:54.068Z,43.00
2019-03-19T01:39:02.063Z,43.20
2019-03-19T01:41:13.453Z,43.20
2019-03-19T01:43:21.454Z,43.20
2019-03-19T01:45:29.453Z,43.40
2019-03-19T01:46:33.815Z,43.20
2019-03-19T01:52:57.249Z,43.10
2019-03-19T01:54:01.639Z,43.30
2019-03-19T01:55:09.748Z,43.20
2019-03-19T01:59:24.924Z,43.30
2019-03-19T02:02:37.118Z,43.40
2019-03-19T02:03:41.861Z,43.20
2019-03-19T02:13:22.805Z,43.30
2019-03-19T02:16:34.344Z,43.30
2019-03-19T02:17:38.743Z,43.20
2019-03-19T02:18:43.172Z,43.30
2019-03-19T02:19:48.197Z,43.30
2019-03-19T02:21:56.198Z,43.90
2019-03-19T02:23:00.685Z,43.30
2019-03-19T02:29:24.603Z,43.60
2019-03-19T02:30:29.022Z,44.10
2019-03-19T02:32:37.013Z,43.50
2019-03-19T02:34:45.848Z,43.80
2019-03-19T02:35:51.264Z,43.60
2019-03-19T02:39:03.176Z,43.30
2019-03-19T02:40:11.147Z,43.30
2019-03-19T02:42:19.361Z,43.40
2019-03-19T02:43:24.597Z,43.40
2019-03-19T02:45:32.582Z,43.60
2019-03-19T02:47:42.333Z,43.30
2019-03-19T02:50:53.924Z,43.40
2019-03-19T02:53:02.252Z,43.20
2019-03-19T02:55:10.692Z,43.40
2019-03-19T02:58:22.944Z,43.10
2019-03-19T03:04:45.728Z,43.20
2019-03-19T03:05:50.156Z,43.30
2019-03-19T03:06:54.652Z,43.10
2019-03-19T03:12:16.901Z,43.30
2019-03-19T03:14:24.837Z,43.50
2019-03-19T03:19:43.671Z,43.40
2019-03-19T03:20:48.077Z,43.20
2019-03-19T03:21:52.594Z,43.40
2019-03-19T03:22:56.995Z,43.60
2019-03-19T03:24:01.396Z,43.60
2019-03-19T03:28:20.175Z,43.30
2019-03-19T03:30:28.162Z,43.30
2019-03-19T03:34:44.369Z,43.30
2019-03-19T03:35:48.879Z,43.50
2019-03-19T03:36:53.295Z,43.40
2019-03-19T03:39:01.505Z,43.30
2019-03-19T03:40:14.641Z,43.60
2019-03-19T03:42:22.864Z,43.60
2019-03-19T03:43:27.337Z,43.40
2019-03-19T03:44:31.743Z,43.30
2019-03-19T03:45:36.382Z,43.50
2019-03-19T03:46:40.973Z,43.50
2019-03-19T03:47:45.381Z,43.50
2019-03-19T03:49:53.505Z,43.30
2019-03-19T03:52:01.583Z,43.30
2019-03-19T03:53:06.297Z,43.20
2019-03-19T03:54:10.672Z,43.20
2019-03-19T03:55:18.185Z,43.20
2019-03-19T03:58:29.972Z,43.40
2019-03-19T03:59:34.366Z,43.40
2019-03-19T04:00:38.811Z,43.60
2019-03-19T04:01:43.221Z,43.30
2019-03-19T04:03:51.420Z,43.40
2019-03-19T04:05:59.623Z,44.10
2019-03-19T04:08:08.446Z,43.50
2019-03-19T04:09:12.803Z,43.30
2019-03-19T04:10:18.186Z,43.40
2019-03-19T04:11:22.897Z,43.40
2019-03-19T04:12:27.522Z,43.40
2019-03-19T04:14:37.336Z,43.30
2019-03-19T04:16:45.363Z,43.50
2019-03-19T04:17:49.763Z,43.60
2019-03-19T04:22:05.061Z,43.50
2019-03-19T04:23:09.453Z,43.50
2019-03-19T04:24:14.184Z,43.80
2019-03-19T04:26:22.172Z,43.40
2019-03-19T04:27:26.573Z,43.40
2019-03-19T04:28:31.006Z,43.70
2019-03-19T04:30:40.016Z,43.50
2019-03-19T04:31:44.458Z,43.50
2019-03-19T04:33:52.640Z,43.50
2019-03-19T04:37:04.219Z,43.40
2019-03-19T04:40:16.225Z,43.30
2019-03-19T04:42:24.542Z,43.40
2019-03-19T04:43:29.170Z,43.50
2019-03-19T04:44:33.548Z,43.40
2019-03-19T04:45:37.924Z,43.50
2019-03-19T04:50:56.733Z,43.70
2019-03-19T04:53:06.100Z,43.40
2019-03-19T04:54:10.467Z,43.40
2019-03-19T04:55:15.906Z,43.40
2019-03-19T04:58:27.500Z,43.40
2019-03-19T05:00:36.067Z,43.50
2019-03-19T05:01:40.521Z,43.60
2019-03-19T05:02:44.938Z,43.60
2019-03-19T05:03:49.287Z,43.80
2019-03-19T05:05:59.655Z,43.40
2019-03-19T05:07:05.000Z,43.50
2019-03-19T05:08:09.944Z,44.10
2019-03-19T05:09:14.664Z,43.80
2019-03-19T05:10:19.288Z,43.60
2019-03-19T05:13:32.094Z,43.70
2019-03-19T05:16:45.329Z,44.00
2019-03-19T05:17:49.731Z,43.80
2019-03-19T05:18:54.155Z,43.70
2019-03-19T05:24:12.926Z,43.50
2019-03-19T05:26:20.916Z,43.50
2019-03-19T05:27:25.938Z,43.50
2019-03-19T05:29:33.945Z,43.40
2019-03-19T05:32:45.677Z,43.50
2019-03-19T05:34:53.940Z,43.70
2019-03-19T05:37:02.883Z,43.40
2019-03-19T05:38:08.883Z,43.50
2019-03-19T05:43:28.090Z,43.60
2019-03-19T05:44:32.495Z,43.50
2019-03-19T05:45:36.913Z,43.40
2019-03-19T05:47:44.952Z,43.50
2019-03-19T05:49:53.215Z,43.30
2019-03-19T05:53:04.909Z,43.30
2019-03-19T05:55:13.694Z,43.50
2019-03-19T06:02:40.804Z,43.40
2019-03-19T06:03:45.303Z,43.30
2019-03-19T06:04:49.723Z,43.60
2019-03-19T06:05:54.129Z,43.30
2019-03-19T06:06:58.553Z,43.20
2019-03-19T06:10:12.689Z,43.30
2019-03-19T06:13:25.308Z,43.30
2019-03-19T06:14:29.727Z,43.10
2019-03-19T06:16:37.717Z,43.10
2019-03-19T06:17:42.231Z,43.50
2019-03-19T06:18:47.868Z,43.10
2019-03-19T06:20:56.082Z,43.30
2019-03-19T06:23:04.182Z,43.30
2019-03-19T06:27:21.648Z,43.40
2019-03-19T06:28:26.120Z,43.20
2019-03-19T06:31:37.718Z,43.20
2019-03-19T06:32:42.129Z,43.30
2019-03-19T06:34:50.743Z,43.70
2019-03-19T06:35:55.158Z,43.60
2019-03-19T06:36:59.561Z,43.50
2019-03-19T06:40:18.007Z,43.50
2019-03-19T06:41:22.503Z,43.50
2019-03-19T06:44:34.114Z,43.60
2019-03-19T06:46:42.104Z,43.40
2019-03-19T06:47:46.625Z,43.70
2019-03-19T06:53:05.492Z,43.60
2019-03-19T06:55:14.685Z,44.00
2019-03-19T06:57:22.893Z,43.70
2019-03-19T06:58:27.259Z,44.30
2019-03-19T06:59:31.632Z,44.00
2019-03-19T07:00:36.039Z,43.70
2019-03-19T07:01:40.469Z,43.70
2019-03-19T07:02:44.856Z,43.60
2019-03-19T07:05:57.027Z,44.40
2019-03-19T07:09:08.599Z,43.40
2019-03-19T07:11:17.696Z,43.60
2019-03-19T07:13:25.690Z,43.70
2019-03-19T07:18:44.565Z,43.70
2019-03-19T07:19:49.181Z,43.50
2019-03-19T07:23:00.718Z,43.50
2019-03-19T07:27:17.129Z,43.50
2019-03-19T07:30:28.705Z,44.60
2019-03-19T07:32:36.678Z,44.40
2019-03-19T07:36:51.850Z,44.00
2019-03-19T07:40:07.085Z,43.30
2019-03-19T07:44:22.418Z,42.70
2019-03-19T07:47:34.096Z,42.10
2019-03-19T07:51:49.288Z,42.20
2019-03-19T07:53:57.275Z,42.00
2019-03-19T07:56:05.255Z,41.80
2019-03-19T07:58:13.234Z,41.30
2019-03-19T08:01:25.417Z,41.30
2019-03-19T08:07:49.489Z,41.00
2019-03-19T08:11:01.015Z,41.10
2019-03-19T08:12:05.491Z,41.00
2019-03-19T08:13:09.895Z,41.40
2019-03-19T08:14:14.257Z,41.20
2019-03-19T08:15:20.768Z,41.20
2019-03-19T08:17:29.881Z,41.50
2019-03-19T08:19:37.886Z,42.30
2019-03-19T08:21:45.994Z,41.90
2019-03-19T08:23:53.993Z,41.80
2019-03-19T08:26:01.997Z,41.70
2019-03-19T08:27:06.709Z,41.70
2019-03-19T08:29:14.708Z,40.90
2019-03-19T08:30:20.449Z,41.10
2019-03-19T08:34:36.372Z,41.00
2019-03-19T08:35:41.270Z,40.80
2019-03-19T08:36:46.199Z,41.40
2019-03-19T08:44:13.265Z,37.90
2019-03-19T08:50:37.275Z,33.70
2019-03-19T08:51:41.670Z,32.70
2019-03-19T08:53:49.657Z,30.50
2019-03-19T08:54:54.040Z,29.90
2019-03-19T08:55:58.403Z,29.60
2019-03-19T09:00:20.917Z,27.70
2019-03-19T09:01:25.520Z,26.80
2019-03-19T09:02:30.938Z,26.60
2019-03-19T09:05:42.536Z,25.70
2019-03-19T09:08:54.360Z,25.60
2019-03-19T09:09:58.760Z,25.00
2019-03-19T09:13:10.361Z,24.20
2019-03-19T09:14:14.735Z,23.90
2019-03-19T09:17:31.199Z,23.00
2019-03-19T09:18:35.567Z,22.70
2019-03-19T09:19:39.952Z,22.50
2019-03-19T09:20:44.348Z,22.20
2019-03-19T09:21:48.722Z,22.20
2019-03-19T09:22:54.040Z,22.00
2019-03-19T09:25:02.057Z,21.50
2019-03-19T09:26:06.448Z,21.40
2019-03-19T09:29:18.980Z,20.60
2019-03-19T09:30:24.068Z,20.40
2019-03-19T09:35:42.894Z,19.50
2019-03-19T09:38:54.517Z,18.60
2019-03-19T09:42:06.146Z,18.40
2019-03-19T09:43:10.526Z,18.50
2019-03-19T09:45:19.448Z,18.20
2019-03-19T09:51:43.640Z,17.00
2019-03-19T09:53:51.648Z,16.60
2019-03-19T09:54:56.042Z,16.10
2019-03-19T09:59:12.192Z,15.90
2019-03-19T10:02:25.543Z,15.70
2019-03-19T10:05:38.267Z,15.40
2019-03-19T10:06:42.663Z,15.30
2019-03-19T10:15:14.054Z,14.50
2019-03-19T10:19:29.300Z,14.40
2019-03-19T10:20:33.751Z,14.30
2019-03-19T10:24:49.138Z,15.20
2019-03-19T10:25:53.755Z,16.30
2019-03-19T10:31:20.734Z,18.60
2019-03-19T10:34:32.344Z,18.30
2019-03-19T10:35:36.715Z,17.70
2019-03-19T10:37:45.029Z,16.50
2019-03-19T10:38:49.421Z,16.10
2019-03-19T10:42:01.132Z,15.70
2019-03-19T10:44:09.141Z,15.30
2019-03-19T10:49:29.399Z,14.80
2019-03-19T10:51:37.415Z,15.40
2019-03-19T10:52:41.819Z,15.30
2019-03-19T11:01:23.970Z,14.90
2019-03-19T11:02:28.374Z,14.90
2019-03-19T11:03:33.017Z,14.70
2019-03-19T11:07:48.366Z,15.50
2019-03-19T11:08:53.011Z,15.70
2019-03-19T11:09:57.406Z,15.80
2019-03-19T11:11:03.637Z,15.80
2019-03-19T11:16:25.502Z,18.20
2019-03-19T11:17:30.135Z,18.70
2019-03-19T11:18:34.809Z,19.40
2019-03-19T11:21:46.407Z,21.30
2019-03-19T11:22:50.800Z,21.20
2019-03-19T11:23:55.172Z,22.20
2019-03-19T11:28:10.564Z,23.70
2019-03-19T11:31:30.898Z,24.00
2019-03-19T11:34:42.485Z,25.10
2019-03-19T11:38:58.750Z,25.20
2019-03-19T11:41:08.238Z,25.60
2019-03-19T11:43:16.366Z,25.70
2019-03-19T11:45:24.700Z,25.50
2019-03-19T11:46:29.321Z,25.80
2019-03-19T11:49:40.900Z,25.30
2019-03-19T11:51:48.930Z,24.80
2019-03-19T11:52:53.416Z,24.70
2019-03-19T11:53:57.781Z,24.70
2019-03-19T11:56:05.881Z,24.30
2019-03-19T11:58:13.984Z,24.40
2019-03-19T12:03:41.537Z,24.70
2019-03-19T12:06:53.466Z,24.80
2019-03-19T12:07:57.851Z,24.70
2019-03-19T12:11:11.325Z,24.90
2019-03-19T12:12:15.743Z,24.90
2019-03-19T12:14:23.737Z,24.50
2019-03-19T12:15:28.381Z,24.40
2019-03-19T12:19:43.834Z,24.50
2019-03-19T12:20:48.215Z,24.80
2019-03-19T12:21:52.586Z,25.00
2019-03-19T12:22:56.993Z,24.70
2019-03-19T12:28:18.037Z,25.10
2019-03-19T12:31:29.657Z,25.20
2019-03-19T12:32:34.049Z,25.10
2019-03-19T12:35:45.608Z,25.20
2019-03-19T12:37:53.652Z,25.30
2019-03-19T12:42:08.849Z,25.30
2019-03-19T12:43:13.353Z,25.40
2019-03-19T12:44:17.760Z,25.50
2019-03-19T12:45:23.105Z,25.60
2019-03-19T12:47:31.133Z,25.70
2019-03-19T12:48:35.495Z,26.00
2019-03-19T12:50:43.479Z,25.90
2019-03-19T12:51:47.913Z,26.20
2019-03-19T12:52:52.325Z,26.30
2019-03-19T12:56:04.222Z,26.20
2019-03-19T12:57:08.740Z,26.20
2019-03-19T12:58:13.133Z,26.10
2019-03-19T13:03:33.237Z,26.20
2019-03-19T13:04:37.655Z,26.20
2019-03-19T13:07:49.273Z,26.00
2019-03-19T13:08:53.658Z,26.10
2019-03-19T13:12:05.297Z,26.30
2019-03-19T13:13:09.701Z,26.30
2019-03-19T13:17:25.845Z,26.10
2019-03-19T13:18:30.268Z,25.90
2019-03-19T13:19:34.668Z,26.00
2019-03-19T13:21:42.670Z,25.90
2019-03-19T13:22:47.040Z,26.10
2019-03-19T13:25:58.794Z,25.80
2019-03-19T13:28:07.025Z,26.00
2019-03-19T13:31:21.301Z,25.80
2019-03-19T13:32:28.157Z,25.80
2019-03-19T13:33:32.060Z,25.90
2019-03-19T13:34:37.474Z,25.70
2019-03-19T13:37:49.105Z,25.80
2019-03-19T13:38:53.467Z,25.70
2019-03-19T13:42:05.106Z,25.30
2019-03-19T13:44:13.125Z,25.40
2019-03-19T13:49:36.499Z,25.40
2019-03-19T13:52:48.128Z,25.30
2019-03-19T13:56:00.043Z,25.30
2019-03-19T14:00:16.773Z,25.20
2019-03-19T14:01:21.394Z,25.00
2019-03-19T14:02:25.779Z,25.10
2019-03-19T14:04:33.794Z,25.90
2019-03-19T14:08:49.118Z,25.10
2019-03-19T14:10:57.109Z,25.40
2019-03-19T14:12:01.529Z,25.40
2019-03-19T14:13:06.041Z,25.30
2019-03-19T14:14:11.568Z,25.40
2019-03-19T14:16:23.469Z,25.40
2019-03-19T14:17:27.875Z,25.40
2019-03-19T14:20:39.569Z,25.40
2019-03-19T14:21:43.974Z,25.40
2019-03-19T14:22:48.376Z,25.50
2019-03-19T14:23:53.461Z,25.40
2019-03-19T14:29:12.313Z,25.30
2019-03-19T14:31:24.075Z,25.60
2019-03-19T14:35:39.274Z,25.70
2019-03-19T14:36:44.098Z,25.70
2019-03-19T14:39:55.745Z,25.80
2019-03-19T14:41:00.145Z,25.90
2019-03-19T14:44:11.877Z,26.00
2019-03-19T14:46:21.310Z,26.00
2019-03-19T14:47:28.148Z,26.30
2019-03-19T14:49:46.060Z,26.20
2019-03-19T14:50:42.358Z,26.20
2019-03-19T14:51:46.756Z,26.10
2019-03-19T14:53:55.144Z,26.00
2019-03-19T14:59:13.991Z,26.50
2019-03-19T15:00:19.084Z,26.40
2019-03-19T15:02:27.117Z,26.40
2019-03-19T15:04:35.137Z,26.60
2019-03-19T15:05:39.533Z,26.60
2019-03-19T15:06:43.925Z,26.80
2019-03-19T15:07:48.537Z,26.90
2019-03-19T15:08:52.919Z,27.00
2019-03-19T15:09:58.224Z,27.10
2019-03-19T15:15:20.490Z,27.30
2019-03-19T15:16:24.913Z,27.30
2019-03-19T15:17:29.305Z,27.40
2019-03-19T15:18:33.685Z,27.50
2019-03-19T15:20:41.675Z,27.50
2019-03-19T15:22:49.788Z,28.00
2019-03-19T15:29:12.476Z,28.20
2019-03-19T15:30:17.126Z,28.10
2019-03-19T15:32:24.777Z,28.30
2019-03-19T15:34:32.786Z,28.50
2019-03-19T15:37:44.621Z,28.60
2019-03-19T15:38:49.258Z,28.60
2019-03-19T15:40:57.260Z,28.60
2019-03-19T15:42:01.688Z,28.70
2019-03-19T15:43:06.105Z,28.90
2019-03-19T15:44:10.489Z,28.90
2019-03-19T15:45:19.286Z,29.10
2019-03-19T15:50:38.105Z,29.10
2019-03-19T15:52:46.156Z,29.40
2019-03-19T15:57:01.675Z,29.80
2019-03-19T16:02:25.173Z,29.80
2019-03-19T16:04:33.409Z,29.80
2019-03-19T16:08:48.653Z,30.00
2019-03-19T16:09:53.040Z,30.00
2019-03-19T16:10:57.454Z,30.20
2019-03-19T16:14:09.370Z,30.50
2019-03-19T16:17:22.105Z,30.60
2019-03-19T16:18:26.501Z,30.50
2019-03-19T16:19:30.983Z,30.70
2019-03-19T16:20:35.342Z,30.70
2019-03-19T16:21:39.825Z,30.90
2019-03-19T16:23:48.712Z,30.70
2019-03-19T16:25:56.710Z,30.90
2019-03-19T16:27:01.155Z,30.80
2019-03-19T16:28:05.664Z,30.90
2019-03-19T16:31:20.165Z,31.50
2019-03-19T16:32:24.549Z,31.70
2019-03-19T16:36:39.817Z,32.20
2019-03-19T16:37:44.226Z,33.00
2019-03-19T16:41:59.450Z,32.30
2019-03-19T16:43:03.957Z,32.30
2019-03-19T16:46:16.737Z,32.40
2019-03-19T16:47:21.148Z,32.60
2019-03-19T16:50:33.242Z,32.60
2019-03-19T16:52:41.239Z,32.90
2019-03-19T16:54:49.261Z,32.70
2019-03-19T17:02:29.541Z,33.90
2019-03-19T17:04:37.641Z,33.50
2019-03-19T17:06:46.669Z,33.40
2019-03-19T17:07:51.089Z,33.30
2019-03-19T17:09:59.052Z,33.30
2019-03-19T17:11:03.489Z,33.50
2019-03-19T17:12:08.529Z,33.80
2019-03-19T17:13:12.918Z,33.90
2019-03-19T17:14:17.624Z,34.20
2019-03-19T17:15:22.137Z,34.00
2019-03-19T17:16:26.781Z,34.10
2019-03-19T17:19:38.578Z,34.50
2019-03-19T17:22:50.214Z,34.70
2019-03-19T17:24:58.340Z,34.80
2019-03-19T17:27:06.448Z,34.50
2019-03-19T17:28:10.852Z,34.60
2019-03-19T17:30:35.114Z,34.70
2019-03-19T17:32:43.256Z,34.80
2019-03-19T17:34:51.491Z,34.80
2019-03-19T17:35:55.961Z,34.80
2019-03-19T17:37:01.258Z,34.80
2019-03-19T17:39:09.284Z,35.00
2019-03-19T17:40:14.501Z,34.90
2019-03-19T17:44:30.412Z,35.30
2019-03-19T17:45:34.832Z,35.30
2019-03-19T17:46:39.228Z,35.40
2019-03-19T17:47:43.650Z,35.60
2019-03-19T17:49:08.515Z,35.50
2019-03-19T17:51:49.108Z,35.60
2019-03-19T17:52:54.486Z,35.40
2019-03-19T17:55:10.377Z,35.80
2019-03-19T17:56:14.782Z,35.80
2019-03-19T17:58:22.817Z,36.10
2019-03-19T17:59:27.201Z,35.90
2019-03-19T18:00:31.610Z,36.00
2019-03-19T18:04:46.880Z,36.30
2019-03-19T18:05:51.360Z,36.20
2019-03-19T18:07:59.441Z,36.70
2019-03-19T18:11:14.982Z,36.30
2019-03-19T18:12:20.272Z,36.50
2019-03-19T18:13:24.669Z,36.50
2019-03-19T18:14:29.052Z,36.60
2019-03-19T18:15:33.539Z,36.50
2019-03-19T18:18:45.584Z,36.30
2019-03-19T18:20:53.908Z,36.70
2019-03-19T18:21:58.409Z,36.70
2019-03-19T18:24:06.409Z,36.70
2019-03-19T18:28:26.284Z,36.90
2019-03-19T18:29:30.703Z,36.70
2019-03-19T18:30:35.111Z,36.60
2019-03-19T18:32:44.362Z,37.60
2019-03-19T18:33:48.853Z,36.70
2019-03-19T18:34:53.270Z,36.90
2019-03-19T18:35:57.693Z,36.80
2019-03-19T18:39:09.330Z,36.90
2019-03-19T18:40:14.839Z,37.00
2019-03-19T18:42:22.900Z,37.10
2019-03-19T18:45:34.501Z,37.10
2019-03-19T18:47:42.586Z,37.20
2019-03-19T18:49:51.595Z,37.20
2019-03-19T18:51:59.624Z,37.20
2019-03-19T18:54:07.665Z,37.60
2019-03-19T18:55:13.212Z,37.40
2019-03-19T18:56:17.609Z,37.60
2019-03-19T18:58:25.569Z,37.70
2019-03-19T19:00:33.608Z,37.70
2019-03-19T19:01:38.001Z,37.90
2019-03-19T19:06:56.817Z,38.20
2019-03-19T19:09:07.299Z,38.10
2019-03-19T19:10:14.591Z,38.20
2019-03-19T19:12:22.680Z,38.00
2019-03-19T19:14:30.770Z,38.10
2019-03-19T19:15:35.390Z,38.30
2019-03-19T19:16:39.803Z,38.30
2019-03-19T19:21:58.616Z,38.10
2019-03-19T19:24:06.671Z,38.10
2019-03-19T19:25:13.954Z,38.20
2019-03-19T19:26:19.381Z,38.10
2019-03-19T19:27:23.802Z,38.20
2019-03-19T19:28:28.224Z,38.10
2019-03-19T19:29:32.588Z,37.90
2019-03-19T19:34:52.405Z,38.10
2019-03-19T19:35:56.822Z,38.00
2019-03-19T19:37:01.338Z,38.00
2019-03-19T19:38:05.842Z,38.10
2019-03-19T19:42:23.244Z,38.50
2019-03-19T19:43:28.649Z,38.00
2019-03-19T19:44:34.148Z,38.10
2019-03-19T19:48:50.452Z,38.10
2019-03-19T19:49:55.166Z,38.30
2019-03-19T19:54:10.448Z,38.20
2019-03-19T20:00:34.042Z,38.50
2019-03-19T20:04:49.262Z,38.70
2019-03-19T20:05:53.761Z,39.00
2019-03-19T20:10:16.781Z,38.70
2019-03-19T20:12:24.752Z,39.00
2019-03-19T20:15:36.397Z,39.40
2019-03-19T20:16:41.395Z,39.30
2019-03-19T20:18:49.377Z,39.20
2019-03-19T20:22:01.192Z,39.70
2019-03-19T20:23:05.607Z,39.10
2019-03-19T20:25:14.432Z,39.50
2019-03-19T20:27:22.439Z,39.80
2019-03-19T20:29:30.473Z,39.90
2019-03-19T20:30:34.956Z,39.90
2019-03-19T20:33:49.388Z,40.30
2019-03-19T20:34:53.734Z,40.30
2019-03-19T20:39:10.065Z,40.00
2019-03-19T20:40:16.034Z,40.30
2019-03-19T20:41:20.448Z,40.10
2019-03-19T20:42:25.919Z,40.30
2019-03-19T20:45:37.488Z,40.10
2019-03-19T20:46:41.914Z,40.10
2019-03-19T20:49:54.216Z,40.10
2019-03-19T20:50:58.631Z,40.90
2019-03-19T20:52:04.148Z,40.10
2019-03-19T20:56:19.379Z,40.20
2019-03-19T20:57:23.758Z,40.40
2019-03-19T20:58:29.299Z,40.20
2019-03-19T20:59:33.640Z,40.50
2019-03-19T21:00:38.117Z,40.10
2019-03-19T21:01:42.512Z,40.20
2019-03-19T21:03:50.625Z,40.40
2019-03-19T21:04:55.031Z,40.40
2019-03-19T21:05:59.540Z,41.20
2019-03-19T21:07:03.956Z,40.60
2019-03-19T21:08:08.355Z,40.40
2019-03-19T21:10:18.840Z,40.50
2019-03-19T21:13:30.445Z,41.50
2019-03-19T21:14:35.069Z,41.00
2019-03-19T21:15:39.756Z,41.10
2019-03-19T21:16:44.157Z,40.80
2019-03-19T21:17:49.101Z,41.00
2019-03-19T21:19:57.115Z,41.30
2019-03-19T21:26:19.649Z,40.80
2019-03-19T21:27:24.045Z,41.20
2019-03-19T21:29:32.336Z,41.00
2019-03-19T21:32:44.027Z,41.40
2019-03-19T21:34:53.190Z,41.20
2019-03-19T21:35:57.550Z,40.90
2019-03-19T21:37:02.009Z,41.10
2019-03-19T21:38:06.403Z,41.20
2019-03-19T21:40:14.742Z,41.10
2019-03-19T21:43:26.713Z,41.50
2019-03-19T21:45:34.738Z,41.50
2019-03-19T21:46:39.129Z,41.10
2019-03-19T21:48:49.270Z,40.70
2019-03-19T21:49:53.936Z,40.50
2019-03-19T21:52:03.008Z,40.70
2019-03-19T21:57:21.923Z,40.90
2019-03-19T22:00:33.567Z,40.90
2019-03-19T22:01:37.968Z,40.60
2019-03-19T22:02:42.395Z,40.80
2019-03-19T22:04:51.358Z,40.70
2019-03-19T22:05:55.820Z,41.00
2019-03-19T22:07:00.283Z,41.50
2019-03-19T22:14:28.847Z,41.00
2019-03-19T22:16:36.945Z,41.10
2019-03-19T22:17:41.369Z,41.20
2019-03-19T22:18:45.785Z,41.30
2019-03-19T22:23:01.845Z,41.10
2019-03-19T22:24:06.285Z,41.50
2019-03-19T22:25:13.874Z,41.40
2019-03-19T22:27:21.848Z,41.20
2019-03-19T22:28:26.385Z,41.40
2019-03-19T22:29:31.178Z,41.60
2019-03-19T22:31:40.227Z,41.60
2019-03-19T22:32:44.742Z,41.90
2019-03-19T22:33:49.115Z,41.80
2019-03-19T22:35:57.140Z,41.90
2019-03-19T22:40:15.243Z,41.90
2019-03-19T22:41:19.685Z,41.90
2019-03-19T22:42:24.108Z,41.60
2019-03-19T22:43:29.371Z,41.60
2019-03-19T22:44:33.715Z,41.40
2019-03-19T22:46:44.204Z,41.60
2019-03-19T22:47:48.599Z,41.20
2019-03-19T22:48:53.023Z,41.60
2019-03-19T22:56:19.387Z,41.50
2019-03-19T22:57:23.783Z,41.60
2019-03-19T23:00:35.393Z,41.90
2019-03-19T23:02:44.111Z,41.80
2019-03-19T23:05:56.618Z,42.00
2019-03-19T23:08:04.936Z,42.00
2019-03-19T23:09:09.432Z,42.30
2019-03-19T23:11:17.747Z,42.40
2019-03-19T23:12:22.146Z,42.20
2019-03-19T23:15:35.839Z,42.10
2019-03-19T23:18:48.727Z,42.20
2019-03-19T23:19:53.447Z,42.20
2019-03-19T23:23:05.299Z,42.10
2019-03-19T23:25:13.570Z,41.90
2019-03-19T23:26:18.248Z,41.70
2019-03-19T23:29:29.944Z,42.80
2019-03-19T23:31:38.265Z,42.10
2019-03-19T23:34:49.937Z,42.10
2019-03-19T23:35:54.321Z,41.80
2019-03-19T23:36:58.745Z,42.30
2019-03-19T23:38:03.178Z,42.00
2019-03-19T23:40:13.723Z,42.40
2019-03-19T23:42:21.833Z,42.50
2019-03-19T23:45:34.121Z,42.30
2019-03-19T23:46:38.494Z,43.00
2019-03-19T23:47:42.899Z,42.20
2019-03-19T23:49:51.203Z,42.40
2019-03-19T23:50:55.566Z,42.20
2019-03-19T23:55:11.160Z,42.00
2019-03-19T23:56:15.877Z,42.00
2019-03-19T23:57:20.398Z,41.90
2019-03-19T23:59:28.498Z,41.80
